createdAt,value
2022-09-06T00:01:23.375Z,98.08
2022-09-06T00:16:28.544Z,98.65
2022-09-06T00:31:31.952Z,99.11
2022-09-06T00:46:34.157Z,98.71
2022-09-06T01:01:35.859Z,97.93
2022-09-06T01:16:46.491Z,98.67
2022-09-06T01:32:01.593Z,95.17
2022-09-06T01:47:05.874Z,100.00
2022-09-06T02:02:12.652Z,100.00
2022-09-06T02:17:16.962Z,100.00
2022-09-06T02:32:22.799Z,100.00
2022-09-06T02:47:24.325Z,100.00
2022-09-06T03:02:26.083Z,100.00
2022-09-06T03:17:27.652Z,100.00
2022-09-06T03:32:29.211Z,100.00
2022-09-06T03:47:30.733Z,100.00
2022-09-06T04:02:32.307Z,100.00
2022-09-06T04:17:33.882Z,97.04
2022-09-06T04:32:35.419Z,89.04
2022-09-06T04:47:37.017Z,79.07
2022-09-06T05:02:38.594Z,78.66
2022-09-06T05:17:40.236Z,71.69
2022-09-06T05:32:41.795Z,67.79
2022-09-06T05:47:43.317Z,65.59
2022-09-06T06:02:48.001Z,67.62
2022-09-06T06:17:49.616Z,59.65
2022-09-06T06:32:51.137Z,60.22
2022-09-06T06:47:52.661Z,56.14
2022-09-06T07:02:55.890Z,57.12
2022-09-06T07:17:57.861Z,53.86
2022-09-06T07:33:00.176Z,52.36
2022-09-06T07:48:01.785Z,53.57
2022-09-06T08:03:03.360Z,56.77
2022-09-06T08:18:05.000Z,52.69
2022-09-06T08:33:06.548Z,50.29
2022-09-06T08:48:08.683Z,49.18
2022-09-06T09:03:21.498Z,48.31
2022-09-06T09:18:25.136Z,46.48
2022-09-06T09:33:32.468Z,46.58
2022-09-06T09:48:33.988Z,40.67
2022-09-06T10:03:35.615Z,42.33
2022-09-06T10:18:41.712Z,37.33
2022-09-06T10:33:43.191Z,38.15
2022-09-06T10:48:45.831Z,39.06
2022-09-06T11:03:58.470Z,36.69
2022-09-06T11:19:07.991Z,37.93
2022-09-06T11:34:20.058Z,35.58
2022-09-06T11:49:29.432Z,35.00
2022-09-06T12:04:49.692Z,33.61
2022-09-06T12:20:07.297Z,33.15
2022-09-06T12:50:34.985Z,38.57
2022-09-06T13:05:40.751Z,42.31
2022-09-06T13:20:42.563Z,40.17
2022-09-06T13:35:44.097Z,42.38
2022-09-06T13:50:45.626Z,43.70
2022-09-06T14:05:47.146Z,42.37
2022-09-06T14:20:52.672Z,41.45
2022-09-06T14:35:54.204Z,44.84
2022-09-06T14:50:55.882Z,45.65
2022-09-06T15:05:57.395Z,46.32
2022-09-06T15:20:59.448Z,48.10
2022-09-06T15:36:06.058Z,51.38
2022-09-06T15:51:07.834Z,53.81
2022-09-06T16:06:27.856Z,55.89
2022-09-06T16:21:32.249Z,57.27
2022-09-06T16:36:33.866Z,58.24
2022-09-06T16:51:35.420Z,58.65
2022-09-06T17:06:44.183Z,60.91
2022-09-06T17:21:47.803Z,61.90
2022-09-06T17:36:49.322Z,63.22
2022-09-06T17:51:50.874Z,64.36
2022-09-06T18:06:52.386Z,62.36
2022-09-06T18:21:55.145Z,61.83
2022-09-06T18:36:57.046Z,60.62
2022-09-06T18:51:58.726Z,61.45
2022-09-06T19:07:02.086Z,64.24
2022-09-06T19:22:03.840Z,65.06
2022-09-06T19:37:05.452Z,66.18
2022-09-06T19:52:10.553Z,68.03
2022-09-06T20:07:12.051Z,76.02
2022-09-06T20:22:13.553Z,74.17
2022-09-06T20:37:15.139Z,81.22
2022-09-06T20:52:16.688Z,80.96
2022-09-06T21:07:18.209Z,81.81
2022-09-06T21:22:19.736Z,86.15
2022-09-06T21:37:21.323Z,87.33
2022-09-06T21:52:23.716Z,87.48
2022-09-06T22:16:08.690Z,87.39
2022-09-06T22:31:10.512Z,88.85
2022-09-06T22:46:12.968Z,91.13
2022-09-06T23:01:15.502Z,91.95
2022-09-06T23:16:18.334Z,93.60
2022-09-06T23:31:20.053Z,91.78
2022-09-06T23:46:21.683Z,91.76
